Calhoun, Georgia
Current Conditions -  °F | °C
As of 10:35 PM on Monday 22 Dec 2014 (Local Time) from KDNN Reporting Station
Moderate Rain Moderate Rain  
Wind Chill: 42°   Ceiling: 2400
Heat Index: 45°   Visibility: 10mi
Dew Point: 45°   Wind: 5mph
Humidity: 100%   Direction: 200°SSW
Pressure: 29.88"   Gusts: NA
Location:  34.51°N, 84.95°W
Report Text: KDNN 230335Z AUTO 20004KT 10SM RA OVC024 07/07 A2988 RMK AO2
Loading
Personal Weather Stations






























Interactive Weather Map New forecast layout! Learn more

10-Day Weather Forecast

Advertisements
Track Severe Weather on mobile